Pagrindinis puslapis
METAR-TAF:

METAR-TAF

Oro uostai :

Džeksonvilis, Florida, Jungtinės Amerikos Valstijos

platuma: 30-20-10N, ilguma: 081-30-53W, Aukštis: 12 m

Dabartinis oras

Ataskaita buvo paskelbta 34 minutes, ne 17:53 UTC
Vėjas 6 kt iš Šiaurės Vakarų
Temperatūra 22°C
Drėgmė 41%
Slėgis 1014 hPa
Matomumas: 16.1 km
Giedras dangus

METAR: KCRG 171753Z 32006KT 10SM CLR 22/08 A2993 RMK AO2 SLP136 T02170083 10217 20156 58016

Laikas: 14:27 (18:27 UTC)

Prognozė

Ataskaita buvo paskelbta 1 valandą ir 7 minutes, ne 17:20 UTC
Prognozė galioja nuo 17 metu 18 UTC su 18 metu 18 UTC
Vėjas 6 kt iš Šiaurės/Šiaurės Vakarų
Matomumas: 10 km
Su prošvaistėmis ne aukštis 25000 ft
Nuo 17 metu 2300 UTC
Vėjas 3 kt nuo kintamojo kryptimis
Matomumas: 10 km
Apsiniaukę ne aukštis 25000 ft
Nuo 18 metu 1500 UTC
Vėjas 7 kt iš Rytų/Šiaurės Rytų
Matomumas: 10 km
Su prošvaistėmis ne aukštis 10000 ft
Apsiniaukę ne aukštis 25000 ft

TAF: KCRG 171720Z 1718/1818 33006KT P6SM BKN250 FM172300 VRB03KT P6SM OVC250 FM181500 07007KT P6SM BKN100 OVC250

Orai ataskaitas ir orų prognozės (METAR, TAF).

turimą stotys yra geltonos ir raudonos taškus žemėlapyje.

Perkelti pele per norėdami pamatyti stoties vardą.

Tada spustelėkite, norėdami matyti oro stebėjimo ir prognozės.

Norėdami pakeisti žemėlapį: spustelėkite ant žalios mygtukų su juodo kryžiaus žemyn,; žalią mygtuką su brūkšneliu, jei norite nutolinti; arba žalių rodyklių gretimoms žemėlapius.


METAR-TAF: